sensor_id;sensor_type;location;lat;lon;timestamp;temperature;humidity
66506;HTU21D;53332;51.082;5.832;2022-08-16T00:01:00;20.47;78.14
66506;HTU21D;53332;51.082;5.832;2022-08-16T00:03:26;20.45;78.09
66506;HTU21D;53332;51.082;5.832;2022-08-16T00:05:51;20.45;77.98
66506;HTU21D;53332;51.082;5.832;2022-08-16T00:08:18;20.44;77.92
66506;HTU21D;53332;51.082;5.832;2022-08-16T00:10:44;20.44;77.90
66506;HTU21D;53332;51.082;5.832;2022-08-16T00:13:10;20.43;77.82
66506;HTU21D;53332;51.082;5.832;2022-08-16T00:15:39;20.42;77.81
66506;HTU21D;53332;51.082;5.832;2022-08-16T00:18:05;20.40;77.79
66506;HTU21D;53332;51.082;5.832;2022-08-16T00:20:32;20.40;77.89
66506;HTU21D;53332;51.082;5.832;2022-08-16T00:22:58;20.37;77.91
66506;HTU21D;53332;51.082;5.832;2022-08-16T00:25:25;20.39;77.80
66506;HTU21D;53332;51.082;5.832;2022-08-16T00:27:51;20.35;77.88
66506;HTU21D;53332;51.082;5.832;2022-08-16T00:30:18;20.33;77.94
66506;HTU21D;53332;51.082;5.832;2022-08-16T00:32:46;20.32;78.02
66506;HTU21D;53332;51.082;5.832;2022-08-16T00:35:20;20.29;78.11
66506;HTU21D;53332;51.082;5.832;2022-08-16T00:37:46;20.27;78.21
66506;HTU21D;53332;51.082;5.832;2022-08-16T00:40:24;20.27;78.33
66506;HTU21D;53332;51.082;5.832;2022-08-16T00:42:50;20.24;78.28
66506;HTU21D;53332;51.082;5.832;2022-08-16T00:48:08;20.22;78.50
66506;HTU21D;53332;51.082;5.832;2022-08-16T00:50:38;20.20;78.55
66506;HTU21D;53332;51.082;5.832;2022-08-16T00:53:07;20.19;78.59
66506;HTU21D;53332;51.082;5.832;2022-08-16T00:55:35;20.16;78.65
66506;HTU21D;53332;51.082;5.832;2022-08-16T00:58:02;20.15;78.63
66506;HTU21D;53332;51.082;5.832;2022-08-16T01:00:31;20.13;78.59
66506;HTU21D;53332;51.082;5.832;2022-08-16T01:02:59;20.12;78.64
66506;HTU21D;53332;51.082;5.832;2022-08-16T01:05:26;20.11;78.69
66506;HTU21D;53332;51.082;5.832;2022-08-16T01:07:52;20.09;78.75
66506;HTU21D;53332;51.082;5.832;2022-08-16T01:10:20;20.05;78.75
66506;HTU21D;53332;51.082;5.832;2022-08-16T01:12:46;20.02;78.87
66506;HTU21D;53332;51.082;5.832;2022-08-16T01:15:12;20.00;78.98
66506;HTU21D;53332;51.082;5.832;2022-08-16T01:17:40;20.00;78.98
66506;HTU21D;53332;51.082;5.832;2022-08-16T01:20:08;19.98;79.17
66506;HTU21D;53332;51.082;5.832;2022-08-16T01:22:55;19.96;79.08
66506;HTU21D;53332;51.082;5.832;2022-08-16T01:25:33;19.94;79.03
66506;HTU21D;53332;51.082;5.832;2022-08-16T01:28:04;19.92;79.17
66506;HTU21D;53332;51.082;5.832;2022-08-16T01:30:35;19.91;79.16
66506;HTU21D;53332;51.082;5.832;2022-08-16T01:33:04;19.86;79.27
66506;HTU21D;53332;51.082;5.832;2022-08-16T01:40:42;19.82;79.37
66506;HTU21D;53332;51.082;5.832;2022-08-16T01:43:07;19.81;79.50
66506;HTU21D;53332;51.082;5.832;2022-08-16T01:45:33;19.80;79.52
66506;HTU21D;53332;51.082;5.832;2022-08-16T01:48:00;19.79;79.51
66506;HTU21D;53332;51.082;5.832;2022-08-16T01:50:27;19.76;79.53
66506;HTU21D;53332;51.082;5.832;2022-08-16T01:52:53;19.75;79.57
66506;HTU21D;53332;51.082;5.832;2022-08-16T01:55:23;19.73;79.58
66506;HTU21D;53332;51.082;5.832;2022-08-16T01:57:49;19.72;79.62
66506;HTU21D;53332;51.082;5.832;2022-08-16T02:00:17;19.71;79.68
66506;HTU21D;53332;51.082;5.832;2022-08-16T02:02:43;19.70;79.79
66506;HTU21D;53332;51.082;5.832;2022-08-16T02:05:11;19.68;79.85
66506;HTU21D;53332;51.082;5.832;2022-08-16T02:07:38;19.68;80.00
66506;HTU21D;53332;51.082;5.832;2022-08-16T02:10:08;19.67;80.08
66506;HTU21D;53332;51.082;5.832;2022-08-16T02:12:35;19.66;80.42
66506;HTU21D;53332;51.082;5.832;2022-08-16T02:15:01;19.63;80.48
66506;HTU21D;53332;51.082;5.832;2022-08-16T02:17:29;19.61;80.57
66506;HTU21D;53332;51.082;5.832;2022-08-16T02:19:55;19.59;80.64
66506;HTU21D;53332;51.082;5.832;2022-08-16T02:22:23;19.58;80.70
66506;HTU21D;53332;51.082;5.832;2022-08-16T02:24:49;19.58;80.78
66506;HTU21D;53332;51.082;5.832;2022-08-16T02:27:15;19.58;80.71
66506;HTU21D;53332;51.082;5.832;2022-08-16T02:29:42;19.56;80.84
66506;HTU21D;53332;51.082;5.832;2022-08-16T02:32:14;19.54;80.93
66506;HTU21D;53332;51.082;5.832;2022-08-16T02:34:40;19.51;81.05
66506;HTU21D;53332;51.082;5.832;2022-08-16T02:37:05;19.48;81.10
66506;HTU21D;53332;51.082;5.832;2022-08-16T02:39:31;19.47;81.27
66506;HTU21D;53332;51.082;5.832;2022-08-16T02:41:57;19.44;81.37
66506;HTU21D;53332;51.082;5.832;2022-08-16T02:44:23;19.42;81.56
66506;HTU21D;53332;51.082;5.832;2022-08-16T02:46:48;19.40;81.73
66506;HTU21D;53332;51.082;5.832;2022-08-16T02:49:14;19.37;81.84
66506;HTU21D;53332;51.082;5.832;2022-08-16T02:51:40;19.33;82.02
66506;HTU21D;53332;51.082;5.832;2022-08-16T02:54:08;19.31;82.14
66506;HTU21D;53332;51.082;5.832;2022-08-16T02:56:34;19.30;82.33
66506;HTU21D;53332;51.082;5.832;2022-08-16T02:59:00;19.27;82.50
66506;HTU21D;53332;51.082;5.832;2022-08-16T03:01:29;19.26;82.66
66506;HTU21D;53332;51.082;5.832;2022-08-16T03:03:56;19.24;82.68
66506;HTU21D;53332;51.082;5.832;2022-08-16T03:06:25;19.22;82.85
66506;HTU21D;53332;51.082;5.832;2022-08-16T03:08:51;19.22;82.94
66506;HTU21D;53332;51.082;5.832;2022-08-16T03:11:17;19.17;83.00
66506;HTU21D;53332;51.082;5.832;2022-08-16T03:13:45;19.16;83.04
66506;HTU21D;53332;51.082;5.832;2022-08-16T03:16:12;19.15;83.13
66506;HTU21D;53332;51.082;5.832;2022-08-16T03:18:38;19.14;83.20
66506;HTU21D;53332;51.082;5.832;2022-08-16T03:21:04;19.12;83.28
66506;HTU21D;53332;51.082;5.832;2022-08-16T03:23:31;19.11;83.36
66506;HTU21D;53332;51.082;5.832;2022-08-16T03:25:57;19.10;83.66
66506;HTU21D;53332;51.082;5.832;2022-08-16T03:28:23;19.08;83.84
66506;HTU21D;53332;51.082;5.832;2022-08-16T03:30:48;19.07;84.07
66506;HTU21D;53332;51.082;5.832;2022-08-16T03:33:14;19.06;84.33
66506;HTU21D;53332;51.082;5.832;2022-08-16T03:35:40;19.06;84.55
66506;HTU21D;53332;51.082;5.832;2022-08-16T03:38:09;19.03;84.68
66506;HTU21D;53332;51.082;5.832;2022-08-16T03:40:36;19.03;84.71
66506;HTU21D;53332;51.082;5.832;2022-08-16T03:43:05;19.00;84.71
66506;HTU21D;53332;51.082;5.832;2022-08-16T03:45:32;18.99;84.84
66506;HTU21D;53332;51.082;5.832;2022-08-16T03:47:59;18.94;84.82
66506;HTU21D;53332;51.082;5.832;2022-08-16T03:50:25;18.94;84.91
66506;HTU21D;53332;51.082;5.832;2022-08-16T03:52:51;18.88;85.06
66506;HTU21D;53332;51.082;5.832;2022-08-16T03:55:16;18.85;85.25
66506;HTU21D;53332;51.082;5.832;2022-08-16T03:57:42;18.81;85.42
66506;HTU21D;53332;51.082;5.832;2022-08-16T04:00:15;18.78;85.63
66506;HTU21D;53332;51.082;5.832;2022-08-16T04:02:42;18.73;85.80
66506;HTU21D;53332;51.082;5.832;2022-08-16T04:05:10;18.71;86.14
66506;HTU21D;53332;51.082;5.832;2022-08-16T04:07:36;18.68;86.30
66506;HTU21D;53332;51.082;5.832;2022-08-16T04:10:05;18.65;86.44
66506;HTU21D;53332;51.082;5.832;2022-08-16T04:12:31;18.65;86.50
66506;HTU21D;53332;51.082;5.832;2022-08-16T04:14:57;18.64;86.71
66506;HTU21D;53332;51.082;5.832;2022-08-16T04:17:22;18.64;86.80
66506;HTU21D;53332;51.082;5.832;2022-08-16T04:19:48;18.64;86.76
66506;HTU21D;53332;51.082;5.832;2022-08-16T04:22:15;18.65;86.75
66506;HTU21D;53332;51.082;5.832;2022-08-16T04:24:40;18.65;86.70
66506;HTU21D;53332;51.082;5.832;2022-08-16T04:27:06;18.66;86.57
66506;HTU21D;53332;51.082;5.832;2022-08-16T04:29:32;18.67;86.60
66506;HTU21D;53332;51.082;5.832;2022-08-16T04:31:58;18.69;86.62
66506;HTU21D;53332;51.082;5.832;2022-08-16T04:34:28;18.70;86.61
66506;HTU21D;53332;51.082;5.832;2022-08-16T04:36:55;18.69;86.55
66506;HTU21D;53332;51.082;5.832;2022-08-16T04:39:22;18.70;86.54
66506;HTU21D;53332;51.082;5.832;2022-08-16T04:41:48;18.72;86.67
66506;HTU21D;53332;51.082;5.832;2022-08-16T04:44:13;18.73;86.64
66506;HTU21D;53332;51.082;5.832;2022-08-16T04:46:39;18.78;86.73
66506;HTU21D;53332;51.082;5.832;2022-08-16T04:49:05;18.81;86.67
66506;HTU21D;53332;51.082;5.832;2022-08-16T04:51:32;18.84;86.55
66506;HTU21D;53332;51.082;5.832;2022-08-16T04:53:58;18.88;86.56
66506;HTU21D;53332;51.082;5.832;2022-08-16T04:56:24;18.95;86.54
66506;HTU21D;53332;51.082;5.832;2022-08-16T04:58:50;18.98;86.46
66506;HTU21D;53332;51.082;5.832;2022-08-16T05:01:16;19.03;86.32
66506;HTU21D;53332;51.082;5.832;2022-08-16T05:03:43;19.09;86.17
66506;HTU21D;53332;51.082;5.832;2022-08-16T05:06:09;19.17;85.97
66506;HTU21D;53332;51.082;5.832;2022-08-16T05:08:35;19.25;85.81
66506;HTU21D;53332;51.082;5.832;2022-08-16T05:11:07;19.36;85.59
66506;HTU21D;53332;51.082;5.832;2022-08-16T05:13:35;19.47;85.09
66506;HTU21D;53332;51.082;5.832;2022-08-16T05:16:02;19.56;84.61
66506;HTU21D;53332;51.082;5.832;2022-08-16T05:18:28;19.63;84.29
66506;HTU21D;53332;51.082;5.832;2022-08-16T05:20:54;19.70;83.95
66506;HTU21D;53332;51.082;5.832;2022-08-16T05:23:19;19.76;83.68
66506;HTU21D;53332;51.082;5.832;2022-08-16T05:25:45;19.83;83.27
66506;HTU21D;53332;51.082;5.832;2022-08-16T05:28:11;19.86;83.07
66506;HTU21D;53332;51.082;5.832;2022-08-16T05:30:37;19.92;82.97
66506;HTU21D;53332;51.082;5.832;2022-08-16T05:33:04;19.97;82.75
66506;HTU21D;53332;51.082;5.832;2022-08-16T05:35:29;20.02;82.52
66506;HTU21D;53332;51.082;5.832;2022-08-16T05:37:55;20.06;82.35
66506;HTU21D;53332;51.082;5.832;2022-08-16T05:40:21;20.09;82.25
66506;HTU21D;53332;51.082;5.832;2022-08-16T05:42:46;20.11;82.10
66506;HTU21D;53332;51.082;5.832;2022-08-16T05:45:13;20.12;81.97
66506;HTU21D;53332;51.082;5.832;2022-08-16T05:47:39;20.14;81.81
66506;HTU21D;53332;51.082;5.832;2022-08-16T05:50:06;20.19;81.49
66506;HTU21D;53332;51.082;5.832;2022-08-16T05:52:32;20.20;81.40
66506;HTU21D;53332;51.082;5.832;2022-08-16T05:54:58;20.27;81.24
66506;HTU21D;53332;51.082;5.832;2022-08-16T05:57:23;20.35;81.01
66506;HTU21D;53332;51.082;5.832;2022-08-16T05:59:50;20.44;80.69
66506;HTU21D;53332;51.082;5.832;2022-08-16T06:02:17;20.57;80.36
66506;HTU21D;53332;51.082;5.832;2022-08-16T06:04:43;20.73;79.69
66506;HTU21D;53332;51.082;5.832;2022-08-16T06:07:09;20.88;78.97
66506;HTU21D;53332;51.082;5.832;2022-08-16T06:09:36;21.08;78.41
66506;HTU21D;53332;51.082;5.832;2022-08-16T06:12:02;21.32;77.44
66506;HTU21D;53332;51.082;5.832;2022-08-16T06:14:28;21.50;76.30
66506;HTU21D;53332;51.082;5.832;2022-08-16T06:16:54;21.68;75.63
66506;HTU21D;53332;51.082;5.832;2022-08-16T06:19:20;21.82;75.08
66506;HTU21D;53332;51.082;5.832;2022-08-16T06:21:46;21.98;74.48
66506;HTU21D;53332;51.082;5.832;2022-08-16T06:24:12;22.12;73.96
66506;HTU21D;53332;51.082;5.832;2022-08-16T06:26:38;22.25;73.21
66506;HTU21D;53332;51.082;5.832;2022-08-16T06:29:03;22.36;73.06
66506;HTU21D;53332;51.082;5.832;2022-08-16T06:31:29;22.47;72.74
66506;HTU21D;53332;51.082;5.832;2022-08-16T06:33:55;22.58;72.24
66506;HTU21D;53332;51.082;5.832;2022-08-16T06:36:21;22.72;71.67
66506;HTU21D;53332;51.082;5.832;2022-08-16T06:38:49;22.81;71.12
66506;HTU21D;53332;51.082;5.832;2022-08-16T06:41:15;22.86;71.16
66506;HTU21D;53332;51.082;5.832;2022-08-16T06:43:41;22.97;70.70
66506;HTU21D;53332;51.082;5.832;2022-08-16T06:46:09;23.06;70.14
66506;HTU21D;53332;51.082;5.832;2022-08-16T06:48:45;23.14;69.89
66506;HTU21D;53332;51.082;5.832;2022-08-16T06:51:11;23.27;69.61
66506;HTU21D;53332;51.082;5.832;2022-08-16T06:53:36;23.38;69.16
66506;HTU21D;53332;51.082;5.832;2022-08-16T06:56:06;23.47;68.91
66506;HTU21D;53332;51.082;5.832;2022-08-16T06:58:32;23.56;68.18
66506;HTU21D;53332;51.082;5.832;2022-08-16T07:01:02;23.64;68.06
66506;HTU21D;53332;51.082;5.832;2022-08-16T07:03:28;23.76;67.72
66506;HTU21D;53332;51.082;5.832;2022-08-16T07:05:54;23.85;67.35
66506;HTU21D;53332;51.082;5.832;2022-08-16T07:08:25;23.99;67.06
66506;HTU21D;53332;51.082;5.832;2022-08-16T07:10:51;24.08;66.63
66506;HTU21D;53332;51.082;5.832;2022-08-16T07:13:18;24.16;66.58
66506;HTU21D;53332;51.082;5.832;2022-08-16T07:15:44;24.16;65.90
66506;HTU21D;53332;51.082;5.832;2022-08-16T07:18:10;24.10;66.15
66506;HTU21D;53332;51.082;5.832;2022-08-16T07:20:37;24.16;66.06
66506;HTU21D;53332;51.082;5.832;2022-08-16T07:23:04;24.21;65.87
66506;HTU21D;53332;51.082;5.832;2022-08-16T07:25:32;24.29;65.77
66506;HTU21D;53332;51.082;5.832;2022-08-16T07:27:58;24.39;65.46
66506;HTU21D;53332;51.082;5.832;2022-08-16T07:30:25;24.59;65.06
66506;HTU21D;53332;51.082;5.832;2022-08-16T07:32:52;24.79;64.34
66506;HTU21D;53332;51.082;5.832;2022-08-16T07:35:18;24.92;63.47
66506;HTU21D;53332;51.082;5.832;2022-08-16T07:37:44;25.04;62.89
66506;HTU21D;53332;51.082;5.832;2022-08-16T07:40:11;25.17;62.55
66506;HTU21D;53332;51.082;5.832;2022-08-16T07:42:37;25.32;61.93
66506;HTU21D;53332;51.082;5.832;2022-08-16T07:45:03;25.49;61.72
66506;HTU21D;53332;51.082;5.832;2022-08-16T07:47:29;25.62;61.25
66506;HTU21D;53332;51.082;5.832;2022-08-16T07:49:55;25.66;60.72
66506;HTU21D;53332;51.082;5.832;2022-08-16T07:52:22;25.73;60.72
66506;HTU21D;53332;51.082;5.832;2022-08-16T07:54:47;25.78;60.42
66506;HTU21D;53332;51.082;5.832;2022-08-16T07:57:13;25.82;59.86
66506;HTU21D;53332;51.082;5.832;2022-08-16T07:59:39;25.75;60.44
66506;HTU21D;53332;51.082;5.832;2022-08-16T08:02:05;25.81;60.05
66506;HTU21D;53332;51.082;5.832;2022-08-16T08:04:30;25.88;59.87
66506;HTU21D;53332;51.082;5.832;2022-08-16T08:06:59;26.01;59.51
66506;HTU21D;53332;51.082;5.832;2022-08-16T08:09:25;26.13;59.10
66506;HTU21D;53332;51.082;5.832;2022-08-16T08:11:50;26.23;58.41
66506;HTU21D;53332;51.082;5.832;2022-08-16T08:14:16;26.21;58.03
66506;HTU21D;53332;51.082;5.832;2022-08-16T08:16:42;26.09;58.41
66506;HTU21D;53332;51.082;5.832;2022-08-16T08:19:08;26.09;58.29
66506;HTU21D;53332;51.082;5.832;2022-08-16T08:21:38;26.16;58.38
66506;HTU21D;53332;51.082;5.832;2022-08-16T08:24:05;26.20;57.83
66506;HTU21D;53332;51.082;5.832;2022-08-16T08:26:32;26.27;57.58
66506;HTU21D;53332;51.082;5.832;2022-08-16T08:28:58;26.42;57.19
66506;HTU21D;53332;51.082;5.832;2022-08-16T08:31:24;26.55;57.09
66506;HTU21D;53332;51.082;5.832;2022-08-16T08:33:50;26.79;56.03
66506;HTU21D;53332;51.082;5.832;2022-08-16T08:36:25;26.91;55.87
66506;HTU21D;53332;51.082;5.832;2022-08-16T08:38:51;27.14;55.07
66506;HTU21D;53332;51.082;5.832;2022-08-16T08:41:17;27.26;54.33
66506;HTU21D;53332;51.082;5.832;2022-08-16T08:43:43;27.22;54.10
66506;HTU21D;53332;51.082;5.832;2022-08-16T08:46:09;27.13;54.45
66506;HTU21D;53332;51.082;5.832;2022-08-16T08:48:35;27.19;54.70
66506;HTU21D;53332;51.082;5.832;2022-08-16T08:51:03;27.30;54.64
66506;HTU21D;53332;51.082;5.832;2022-08-16T08:53:29;27.44;53.97
66506;HTU21D;53332;51.082;5.832;2022-08-16T08:55:55;27.56;53.77
66506;HTU21D;53332;51.082;5.832;2022-08-16T08:58:20;27.73;52.91
66506;HTU21D;53332;51.082;5.832;2022-08-16T09:00:46;27.75;52.88
66506;HTU21D;53332;51.082;5.832;2022-08-16T09:03:12;27.88;52.52
66506;HTU21D;53332;51.082;5.832;2022-08-16T09:05:39;27.93;52.04
66506;HTU21D;53332;51.082;5.832;2022-08-16T09:08:05;27.93;52.39
66506;HTU21D;53332;51.082;5.832;2022-08-16T09:10:31;28.13;51.59
66506;HTU21D;53332;51.082;5.832;2022-08-16T09:12:58;28.23;51.74
66506;HTU21D;53332;51.082;5.832;2022-08-16T09:15:24;28.41;50.89
66506;HTU21D;53332;51.082;5.832;2022-08-16T09:17:51;28.44;50.55
66506;HTU21D;53332;51.082;5.832;2022-08-16T09:20:21;28.52;50.50
66506;HTU21D;53332;51.082;5.832;2022-08-16T09:22:47;28.67;50.29
66506;HTU21D;53332;51.082;5.832;2022-08-16T09:25:14;28.77;49.80
66506;HTU21D;53332;51.082;5.832;2022-08-16T09:27:40;28.88;49.37
66506;HTU21D;53332;51.082;5.832;2022-08-16T09:30:07;28.92;49.05
66506;HTU21D;53332;51.082;5.832;2022-08-16T09:32:33;28.91;49.03
66506;HTU21D;53332;51.082;5.832;2022-08-16T09:35:00;28.89;48.91
66506;HTU21D;53332;51.082;5.832;2022-08-16T09:37:30;28.86;49.11
66506;HTU21D;53332;51.082;5.832;2022-08-16T09:39:57;28.86;49.21
66506;HTU21D;53332;51.082;5.832;2022-08-16T09:42:23;28.80;48.86
66506;HTU21D;53332;51.082;5.832;2022-08-16T09:44:50;28.64;48.90
66506;HTU21D;53332;51.082;5.832;2022-08-16T09:47:16;28.52;49.31
66506;HTU21D;53332;51.082;5.832;2022-08-16T09:49:42;28.35;49.96
66506;HTU21D;53332;51.082;5.832;2022-08-16T09:52:08;28.34;50.27
66506;HTU21D;53332;51.082;5.832;2022-08-16T09:54:34;28.44;49.67
66506;HTU21D;53332;51.082;5.832;2022-08-16T09:57:01;28.50;48.99
66506;HTU21D;53332;51.082;5.832;2022-08-16T09:59:27;28.55;48.59
66506;HTU21D;53332;51.082;5.832;2022-08-16T10:01:53;28.62;47.79
66506;HTU21D;53332;51.082;5.832;2022-08-16T10:04:19;28.56;47.84
66506;HTU21D;53332;51.082;5.832;2022-08-16T10:06:45;28.57;48.00
66506;HTU21D;53332;51.082;5.832;2022-08-16T10:09:13;28.60;47.36
66506;HTU21D;53332;51.082;5.832;2022-08-16T10:11:41;28.57;47.58
66506;HTU21D;53332;51.082;5.832;2022-08-16T10:14:25;28.59;47.67
66506;HTU21D;53332;51.082;5.832;2022-08-16T10:16:57;28.60;47.73
66506;HTU21D;53332;51.082;5.832;2022-08-16T10:19:24;28.72;46.96
66506;HTU21D;53332;51.082;5.832;2022-08-16T10:21:49;28.80;46.64
66506;HTU21D;53332;51.082;5.832;2022-08-16T10:24:15;28.89;46.37
66506;HTU21D;53332;51.082;5.832;2022-08-16T10:26:41;29.00;46.22
66506;HTU21D;53332;51.082;5.832;2022-08-16T10:29:06;29.14;45.82
66506;HTU21D;53332;51.082;5.832;2022-08-16T10:31:33;29.21;45.31
66506;HTU21D;53332;51.082;5.832;2022-08-16T10:33:59;29.17;45.41
66506;HTU21D;53332;51.082;5.832;2022-08-16T10:36:26;29.15;45.16
66506;HTU21D;53332;51.082;5.832;2022-08-16T10:38:52;29.13;45.19
66506;HTU21D;53332;51.082;5.832;2022-08-16T10:41:18;29.23;44.61
66506;HTU21D;53332;51.082;5.832;2022-08-16T10:43:44;29.39;43.82
66506;HTU21D;53332;51.082;5.832;2022-08-16T10:46:12;29.63;43.16
66506;HTU21D;53332;51.082;5.832;2022-08-16T10:48:40;29.95;42.84
66506;HTU21D;53332;51.082;5.832;2022-08-16T10:51:06;30.32;42.29
66506;HTU21D;53332;51.082;5.832;2022-08-16T10:53:33;30.57;40.43
66506;HTU21D;53332;51.082;5.832;2022-08-16T10:56:03;30.48;40.76
66506;HTU21D;53332;51.082;5.832;2022-08-16T10:58:30;30.50;41.04
66506;HTU21D;53332;51.082;5.832;2022-08-16T11:00:55;30.53;39.84
66506;HTU21D;53332;51.082;5.832;2022-08-16T11:03:22;30.44;40.08
66506;HTU21D;53332;51.082;5.832;2022-08-16T11:05:48;30.44;39.93
66506;HTU21D;53332;51.082;5.832;2022-08-16T11:08:17;30.51;39.78
66506;HTU21D;53332;51.082;5.832;2022-08-16T11:10:44;30.48;39.96
66506;HTU21D;53332;51.082;5.832;2022-08-16T11:13:13;30.32;39.94
66506;HTU21D;53332;51.082;5.832;2022-08-16T11:15:39;30.16;39.94
66506;HTU21D;53332;51.082;5.832;2022-08-16T11:18:09;30.00;39.71
66506;HTU21D;53332;51.082;5.832;2022-08-16T11:20:36;29.80;40.40
66506;HTU21D;53332;51.082;5.832;2022-08-16T11:23:01;29.87;40.71
66506;HTU21D;53332;51.082;5.832;2022-08-16T11:25:29;30.02;40.50
66506;HTU21D;53332;51.082;5.832;2022-08-16T11:27:56;29.98;40.33
66506;HTU21D;53332;51.082;5.832;2022-08-16T11:30:24;29.90;40.71
66506;HTU21D;53332;51.082;5.832;2022-08-16T11:32:50;30.03;40.69
66506;HTU21D;53332;51.082;5.832;2022-08-16T11:35:20;30.05;39.88
66506;HTU21D;53332;51.082;5.832;2022-08-16T11:37:52;30.09;40.10
66506;HTU21D;53332;51.082;5.832;2022-08-16T11:40:19;30.21;39.75
66506;HTU21D;53332;51.082;5.832;2022-08-16T11:42:45;30.30;39.85
66506;HTU21D;53332;51.082;5.832;2022-08-16T11:45:11;30.56;39.19
66506;HTU21D;53332;51.082;5.832;2022-08-16T11:47:37;30.74;39.10
66506;HTU21D;53332;51.082;5.832;2022-08-16T11:50:07;30.83;38.76
66506;HTU21D;53332;51.082;5.832;2022-08-16T11:52:34;30.74;38.59
66506;HTU21D;53332;51.082;5.832;2022-08-16T11:55:00;30.48;39.19
66506;HTU21D;53332;51.082;5.832;2022-08-16T11:57:26;30.44;39.14
66506;HTU21D;53332;51.082;5.832;2022-08-16T11:59:52;30.50;39.43
66506;HTU21D;53332;51.082;5.832;2022-08-16T12:02:18;30.60;39.59
66506;HTU21D;53332;51.082;5.832;2022-08-16T12:04:44;30.65;39.50
66506;HTU21D;53332;51.082;5.832;2022-08-16T12:07:10;30.67;39.73
66506;HTU21D;53332;51.082;5.832;2022-08-16T12:09:36;30.74;39.07
66506;HTU21D;53332;51.082;5.832;2022-08-16T12:12:02;30.76;38.59
66506;HTU21D;53332;51.082;5.832;2022-08-16T12:14:29;30.70;37.69
66506;HTU21D;53332;51.082;5.832;2022-08-16T12:16:56;30.60;37.03
66506;HTU21D;53332;51.082;5.832;2022-08-16T12:19:23;30.52;36.82
66506;HTU21D;53332;51.082;5.832;2022-08-16T12:21:49;30.51;37.14
66506;HTU21D;53332;51.082;5.832;2022-08-16T12:24:14;30.59;37.05
66506;HTU21D;53332;51.082;5.832;2022-08-16T12:26:40;30.64;36.28
66506;HTU21D;53332;51.082;5.832;2022-08-16T12:29:05;30.61;36.28
66506;HTU21D;53332;51.082;5.832;2022-08-16T12:31:31;30.74;36.16
66506;HTU21D;53332;51.082;5.832;2022-08-16T12:33:57;30.77;36.49
66506;HTU21D;53332;51.082;5.832;2022-08-16T12:36:23;30.94;36.77
66506;HTU21D;53332;51.082;5.832;2022-08-16T12:38:50;31.10;35.72
66506;HTU21D;53332;51.082;5.832;2022-08-16T12:41:16;31.13;35.10
66506;HTU21D;53332;51.082;5.832;2022-08-16T12:43:41;30.97;35.18
66506;HTU21D;53332;51.082;5.832;2022-08-16T12:46:08;30.94;35.56
66506;HTU21D;53332;51.082;5.832;2022-08-16T12:48:35;31.10;35.67
66506;HTU21D;53332;51.082;5.832;2022-08-16T12:51:23;31.28;35.39
66506;HTU21D;53332;51.082;5.832;2022-08-16T12:53:52;31.44;35.35
66506;HTU21D;53332;51.082;5.832;2022-08-16T12:56:20;31.60;34.63
66506;HTU21D;53332;51.082;5.832;2022-08-16T12:58:46;31.76;34.16
66506;HTU21D;53332;51.082;5.832;2022-08-16T13:01:25;31.95;33.54
66506;HTU21D;53332;51.082;5.832;2022-08-16T13:03:52;32.05;33.67
66506;HTU21D;53332;51.082;5.832;2022-08-16T13:06:21;32.25;33.21
66506;HTU21D;53332;51.082;5.832;2022-08-16T13:08:47;32.28;33.05
66506;HTU21D;53332;51.082;5.832;2022-08-16T13:11:17;32.25;33.35
66506;HTU21D;53332;51.082;5.832;2022-08-16T13:13:45;32.29;32.90
66506;HTU21D;53332;51.082;5.832;2022-08-16T13:16:10;32.34;32.75
66506;HTU21D;53332;51.082;5.832;2022-08-16T13:18:36;32.40;32.28
66506;HTU21D;53332;51.082;5.832;2022-08-16T13:21:07;32.39;32.02
66506;HTU21D;53332;51.082;5.832;2022-08-16T13:23:34;32.44;31.66
66506;HTU21D;53332;51.082;5.832;2022-08-16T13:26:00;32.62;30.81
66506;HTU21D;53332;51.082;5.832;2022-08-16T13:28:26;32.74;30.68
66506;HTU21D;53332;51.082;5.832;2022-08-16T13:30:54;32.91;30.30
66506;HTU21D;53332;51.082;5.832;2022-08-16T13:33:23;33.07;29.75
66506;HTU21D;53332;51.082;5.832;2022-08-16T13:35:51;33.15;29.62
66506;HTU21D;53332;51.082;5.832;2022-08-16T13:38:18;33.11;29.74
66506;HTU21D;53332;51.082;5.832;2022-08-16T13:40:43;33.06;29.88
66506;HTU21D;53332;51.082;5.832;2022-08-16T13:43:10;32.97;30.18
66506;HTU21D;53332;51.082;5.832;2022-08-16T13:45:36;32.78;30.50
66506;HTU21D;53332;51.082;5.832;2022-08-16T13:48:02;32.66;30.66
66506;HTU21D;53332;51.082;5.832;2022-08-16T13:50:30;32.54;30.83
66506;HTU21D;53332;51.082;5.832;2022-08-16T13:52:56;32.39;31.06
66506;HTU21D;53332;51.082;5.832;2022-08-16T13:55:23;32.22;31.20
66506;HTU21D;53332;51.082;5.832;2022-08-16T13:57:49;32.19;31.45
66506;HTU21D;53332;51.082;5.832;2022-08-16T14:00:16;32.31;31.54
66506;HTU21D;53332;51.082;5.832;2022-08-16T14:02:43;32.39;31.58
66506;HTU21D;53332;51.082;5.832;2022-08-16T14:05:10;32.42;31.83
66506;HTU21D;53332;51.082;5.832;2022-08-16T14:07:36;32.42;31.71
66506;HTU21D;53332;51.082;5.832;2022-08-16T14:10:08;32.41;31.82
66506;HTU21D;53332;51.082;5.832;2022-08-16T14:12:35;32.39;32.06
66506;HTU21D;53332;51.082;5.832;2022-08-16T14:15:07;32.43;31.84
66506;HTU21D;53332;51.082;5.832;2022-08-16T14:17:33;32.44;31.96
66506;HTU21D;53332;51.082;5.832;2022-08-16T14:19:59;32.57;32.04
66506;HTU21D;53332;51.082;5.832;2022-08-16T14:22:30;32.74;31.58
66506;HTU21D;53332;51.082;5.832;2022-08-16T14:24:57;32.78;31.55
66506;HTU21D;53332;51.082;5.832;2022-08-16T14:27:26;32.83;31.88
66506;HTU21D;53332;51.082;5.832;2022-08-16T14:29:54;32.90;31.94
66506;HTU21D;53332;51.082;5.832;2022-08-16T14:32:22;32.82;31.94
66506;HTU21D;53332;51.082;5.832;2022-08-16T14:34:49;32.69;32.36
66506;HTU21D;53332;51.082;5.832;2022-08-16T14:37:15;32.58;32.94
66506;HTU21D;53332;51.082;5.832;2022-08-16T14:39:41;32.58;32.97
66506;HTU21D;53332;51.082;5.832;2022-08-16T14:42:11;32.52;32.95
66506;HTU21D;53332;51.082;5.832;2022-08-16T14:44:38;32.47;33.33
66506;HTU21D;53332;51.082;5.832;2022-08-16T14:47:04;32.54;33.28
66506;HTU21D;53332;51.082;5.832;2022-08-16T14:49:31;32.59;32.93
66506;HTU21D;53332;51.082;5.832;2022-08-16T14:52:06;32.60;33.08
66506;HTU21D;53332;51.082;5.832;2022-08-16T14:54:32;32.60;32.76
66506;HTU21D;53332;51.082;5.832;2022-08-16T14:56:58;32.62;32.51
66506;HTU21D;53332;51.082;5.832;2022-08-16T14:59:24;32.71;32.31
66506;HTU21D;53332;51.082;5.832;2022-08-16T15:01:52;32.64;32.44
66506;HTU21D;53332;51.082;5.832;2022-08-16T15:04:18;32.55;32.70
66506;HTU21D;53332;51.082;5.832;2022-08-16T15:06:44;32.49;32.96
66506;HTU21D;53332;51.082;5.832;2022-08-16T15:09:10;32.58;32.97
66506;HTU21D;53332;51.082;5.832;2022-08-16T15:11:35;32.63;32.90
66506;HTU21D;53332;51.082;5.832;2022-08-16T15:14:01;32.70;32.67
66506;HTU21D;53332;51.082;5.832;2022-08-16T15:16:27;32.69;32.59
66506;HTU21D;53332;51.082;5.832;2022-08-16T15:18:53;32.64;32.57
66506;HTU21D;53332;51.082;5.832;2022-08-16T15:21:19;32.62;32.72